createdAt,value
2023-04-16T00:00:33.297Z,13.10
2023-04-16T00:03:03.129Z,8.80
2023-04-16T00:05:33.514Z,9.50
2023-04-16T00:08:01.190Z,12.48
2023-04-16T00:10:30.936Z,12.07
2023-04-16T00:12:58.233Z,13.52
2023-04-16T00:15:25.986Z,14.88
2023-04-16T00:17:53.976Z,10.82
2023-04-16T00:20:21.603Z,8.20
2023-04-16T00:22:50.141Z,9.02
2023-04-16T00:25:17.689Z,6.95
2023-04-16T00:27:50.596Z,9.13
2023-04-16T00:30:18.083Z,11.52
2023-04-16T00:32:51.276Z,7.65
2023-04-16T00:35:19.905Z,8.25
2023-04-16T00:37:49.675Z,8.38
2023-04-16T00:40:24.169Z,10.55
2023-04-16T00:42:53.879Z,11.05
2023-04-16T00:45:30.719Z,11.10
2023-04-16T00:48:00.636Z,10.75
2023-04-16T00:50:38.021Z,8.82
2023-04-16T00:53:06.652Z,10.85
2023-04-16T00:55:34.547Z,8.05
2023-04-16T00:58:03.410Z,11.10
2023-04-16T01:00:43.190Z,6.55
2023-04-16T01:03:10.891Z,14.27
2023-04-16T01:05:40.037Z,9.68
2023-04-16T01:08:18.071Z,8.25
2023-04-16T01:10:45.610Z,8.68
2023-04-16T01:13:14.097Z,10.00
2023-04-16T01:15:41.474Z,7.15
2023-04-16T01:18:20.338Z,9.65
2023-04-16T01:20:51.015Z,11.68
2023-04-16T01:23:19.236Z,11.48
2023-04-16T01:25:49.580Z,7.97
2023-04-16T01:28:20.789Z,8.88
2023-04-16T01:30:48.097Z,8.57
2023-04-16T01:33:21.986Z,7.93
2023-04-16T01:35:53.775Z,10.07
2023-04-16T01:38:24.732Z,7.20
2023-04-16T01:41:03.773Z,7.93
2023-04-16T01:43:34.792Z,8.90
2023-04-16T01:46:41.679Z,11.20
2023-04-16T01:49:12.941Z,9.52
2023-04-16T01:51:43.967Z,10.52
2023-04-16T01:54:15.821Z,15.52
2023-04-16T01:56:45.693Z,24.00
2023-04-16T01:59:13.261Z,16.05
2023-04-16T02:01:44.385Z,32.33
2023-04-16T02:04:14.690Z,30.20
2023-04-16T02:06:46.303Z,20.25
2023-04-16T02:09:15.707Z,143.20
2023-04-16T02:11:50.841Z,167.93
2023-04-16T02:14:18.724Z,57.58
2023-04-16T02:16:57.993Z,123.78
2023-04-16T02:19:29.451Z,220.13
2023-04-16T02:22:07.331Z,191.07
2023-04-16T02:24:42.552Z,171.98
2023-04-16T02:27:16.293Z,148.02
2023-04-16T02:29:44.452Z,37.78
2023-04-16T02:32:30.542Z,106.78
2023-04-16T02:34:58.644Z,77.57
2023-04-16T02:37:27.597Z,15.00
2023-04-16T02:39:57.270Z,26.17
2023-04-16T02:42:28.781Z,42.78
2023-04-16T02:44:57.585Z,14.38
2023-04-16T02:47:25.307Z,41.50
2023-04-16T02:49:55.437Z,53.63
2023-04-16T02:52:23.804Z,27.40
2023-04-16T02:54:54.239Z,30.50
2023-04-16T02:57:22.254Z,19.63
2023-04-16T02:59:58.949Z,28.55
2023-04-16T03:02:33.595Z,15.32
2023-04-16T03:05:09.169Z,18.80
2023-04-16T03:08:02.295Z,17.45
2023-04-16T03:10:37.828Z,70.57
2023-04-16T03:13:10.477Z,37.30
2023-04-16T03:15:38.054Z,28.42
2023-04-16T03:18:06.298Z,32.60
2023-04-16T03:20:39.500Z,22.55
2023-04-16T03:26:34.600Z,15.38
2023-04-16T03:29:10.173Z,24.73
2023-04-16T03:31:39.986Z,17.85
2023-04-16T03:34:12.618Z,14.00
2023-04-16T03:36:52.319Z,10.05
2023-04-16T03:39:20.269Z,8.18
2023-04-16T03:41:48.239Z,9.90
2023-04-16T03:44:18.812Z,8.18
2023-04-16T03:46:47.168Z,9.35
2023-04-16T03:49:17.936Z,9.80
2023-04-16T03:51:45.568Z,15.07
2023-04-16T03:54:23.556Z,8.95
2023-04-16T03:56:52.135Z,6.82
2023-04-16T03:59:19.430Z,9.13
2023-04-16T04:01:53.345Z,9.82
2023-04-16T04:04:29.628Z,12.35
2023-04-16T04:07:05.628Z,10.68
2023-04-16T04:09:38.328Z,9.68
2023-04-16T04:12:06.128Z,6.72
2023-04-16T04:14:47.974Z,11.40
2023-04-16T04:17:21.187Z,7.72
2023-04-16T04:20:01.194Z,10.50
2023-04-16T04:22:47.099Z,11.50
2023-04-16T04:25:15.397Z,6.18
2023-04-16T04:27:49.005Z,5.63
2023-04-16T04:30:21.486Z,9.10
2023-04-16T04:32:48.932Z,7.57
2023-04-16T04:35:42.043Z,10.13
2023-04-16T04:40:41.136Z,9.02
2023-04-16T04:43:09.465Z,9.45
2023-04-16T04:45:37.707Z,9.32
2023-04-16T04:48:07.982Z,8.45
2023-04-16T04:50:36.611Z,8.23
2023-04-16T04:53:12.362Z,10.80
2023-04-16T04:55:43.461Z,8.93
2023-04-16T04:58:13.689Z,8.65
2023-04-16T05:00:43.900Z,13.55
2023-04-16T05:03:36.927Z,11.90
2023-04-16T05:06:06.140Z,10.98
2023-04-16T05:08:33.576Z,11.32
2023-04-16T05:11:08.752Z,13.30
2023-04-16T05:13:46.545Z,10.75
2023-04-16T05:16:14.924Z,10.50
2023-04-16T05:18:42.270Z,10.90
2023-04-16T05:21:13.101Z,12.95
2023-04-16T05:23:46.233Z,11.95
2023-04-16T05:26:25.737Z,13.82
2023-04-16T05:29:01.566Z,9.98
2023-04-16T05:31:29.047Z,19.85
2023-04-16T05:34:05.148Z,10.45
2023-04-16T05:36:33.655Z,8.80
2023-04-16T05:39:05.238Z,10.45
2023-04-16T05:41:39.121Z,8.77
2023-04-16T05:44:08.124Z,10.38
2023-04-16T05:49:19.024Z,8.05
2023-04-16T05:51:51.011Z,9.80
2023-04-16T05:54:25.809Z,10.13
2023-04-16T05:56:53.614Z,10.15
2023-04-16T05:59:30.992Z,11.35
2023-04-16T06:01:58.360Z,8.40
2023-04-16T06:04:38.180Z,10.65
2023-04-16T06:07:17.096Z,8.80
2023-04-16T06:09:45.561Z,8.07
2023-04-16T06:12:39.114Z,5.95
2023-04-16T06:15:28.523Z,8.48
2023-04-16T06:18:12.224Z,8.88
2023-04-16T06:20:50.262Z,8.25
2023-04-16T06:23:23.880Z,8.90
2023-04-16T06:25:53.082Z,9.00
2023-04-16T06:28:33.243Z,10.38
2023-04-16T06:31:11.524Z,10.32
2023-04-16T06:33:51.889Z,10.65
2023-04-16T06:36:27.939Z,5.68
2023-04-16T06:38:55.273Z,7.70
2023-04-16T06:41:26.927Z,12.30
2023-04-16T06:46:51.482Z,8.73
2023-04-16T06:49:19.330Z,12.30
2023-04-16T06:51:51.925Z,9.13
2023-04-16T06:54:38.395Z,9.15
2023-04-16T06:57:10.543Z,6.75
2023-04-16T06:59:43.372Z,7.03
2023-04-16T07:02:16.308Z,10.13
2023-04-16T07:04:43.757Z,9.75
2023-04-16T07:07:14.190Z,10.48
2023-04-16T07:09:46.564Z,9.98
2023-04-16T07:12:18.743Z,9.80
2023-04-16T07:14:48.031Z,8.50
2023-04-16T07:17:15.697Z,9.57
2023-04-16T07:19:48.845Z,11.95
2023-04-16T07:22:33.709Z,10.88
2023-04-16T07:25:01.863Z,7.55
2023-04-16T07:27:35.308Z,12.40
2023-04-16T07:30:12.343Z,7.88
2023-04-16T07:32:50.780Z,9.88
2023-04-16T07:35:18.512Z,7.55
2023-04-16T07:37:51.715Z,17.52
2023-04-16T07:40:19.781Z,11.85
2023-04-16T07:42:49.577Z,12.18
2023-04-16T07:45:20.595Z,9.25
2023-04-16T07:47:51.863Z,9.95
2023-04-16T07:50:19.669Z,13.63
2023-04-16T07:52:53.018Z,10.82
2023-04-16T07:55:23.994Z,10.45
2023-04-16T07:57:52.555Z,10.50
2023-04-16T08:00:23.119Z,10.02
2023-04-16T08:02:56.541Z,11.30
2023-04-16T08:05:27.092Z,11.60
2023-04-16T08:08:03.578Z,9.57
2023-04-16T08:10:48.111Z,8.07
2023-04-16T08:13:16.068Z,9.43
2023-04-16T08:15:46.966Z,12.23
2023-04-16T08:18:17.746Z,10.30
2023-04-16T08:20:48.049Z,9.30
2023-04-16T08:23:15.775Z,11.75
2023-04-16T08:25:44.309Z,10.07
2023-04-16T08:28:14.511Z,10.02
2023-04-16T08:30:45.713Z,15.40
2023-04-16T08:33:18.487Z,8.27
2023-04-16T08:35:46.443Z,11.95
2023-04-16T08:38:15.634Z,11.38
2023-04-16T08:40:43.783Z,11.45
2023-04-16T08:43:18.158Z,12.05
2023-04-16T08:45:53.462Z,10.70
2023-04-16T08:48:22.570Z,12.05
2023-04-16T08:50:59.054Z,9.63
2023-04-16T08:53:52.409Z,13.80
2023-04-16T08:56:24.818Z,9.30
2023-04-16T08:58:55.194Z,11.60
2023-04-16T09:01:28.373Z,11.20
2023-04-16T09:03:56.748Z,7.97
2023-04-16T09:06:47.286Z,11.77
2023-04-16T09:09:15.011Z,9.57
2023-04-16T09:11:43.035Z,10.68
2023-04-16T09:14:12.246Z,9.75
2023-04-16T09:16:41.417Z,11.85
2023-04-16T09:19:42.720Z,15.52
2023-04-16T09:22:24.477Z,10.52
2023-04-16T09:24:52.140Z,8.02
2023-04-16T09:27:26.923Z,8.48
2023-04-16T09:29:57.021Z,8.30
2023-04-16T09:32:34.156Z,9.95
2023-04-16T09:35:05.031Z,11.55
2023-04-16T09:37:33.224Z,12.82
2023-04-16T09:40:05.089Z,8.57
2023-04-16T09:42:39.725Z,10.80
2023-04-16T09:45:17.023Z,9.55
2023-04-16T09:47:50.951Z,13.45
2023-04-16T09:50:20.705Z,9.77
2023-04-16T09:52:51.775Z,12.35
2023-04-16T09:55:37.221Z,12.38
2023-04-16T09:58:08.088Z,13.32
2023-04-16T10:00:44.212Z,10.60
2023-04-16T10:03:16.358Z,12.43
2023-04-16T10:06:02.629Z,10.75
2023-04-16T10:08:30.719Z,12.27
2023-04-16T10:11:02.218Z,12.27
2023-04-16T10:13:32.695Z,13.88
2023-04-16T10:16:00.759Z,11.70
2023-04-16T10:18:29.232Z,13.15
2023-04-16T10:21:00.156Z,12.00
2023-04-16T10:23:37.880Z,10.55
2023-04-16T10:26:06.415Z,11.18
2023-04-16T10:28:38.332Z,13.52
2023-04-16T10:31:10.055Z,12.95
2023-04-16T10:33:46.831Z,11.32
2023-04-16T10:36:17.413Z,10.77
2023-04-16T10:38:59.599Z,13.02
2023-04-16T10:41:29.997Z,14.93
2023-04-16T10:44:10.584Z,20.20
2023-04-16T10:46:42.545Z,10.90
2023-04-16T10:49:22.326Z,11.73
2023-04-16T10:52:22.829Z,11.23
2023-04-16T10:54:53.046Z,9.23
2023-04-16T10:57:32.134Z,12.40
2023-04-16T11:00:20.737Z,10.80
2023-04-16T11:02:52.969Z,11.50
2023-04-16T11:05:26.510Z,12.82
2023-04-16T11:08:15.532Z,11.85
2023-04-16T11:10:44.208Z,11.90
2023-04-16T11:13:13.508Z,12.05
2023-04-16T11:15:47.506Z,13.02
2023-04-16T11:18:25.846Z,12.93
2023-04-16T11:20:55.884Z,12.23
2023-04-16T11:23:23.670Z,13.02
2023-04-16T11:26:01.501Z,10.55
2023-04-16T11:28:36.518Z,9.45
2023-04-16T11:31:12.525Z,9.60
2023-04-16T11:33:40.325Z,9.18
2023-04-16T11:36:12.631Z,11.23
2023-04-16T11:38:46.485Z,13.52
2023-04-16T11:41:22.198Z,24.95
2023-04-16T11:43:51.326Z,13.10
2023-04-16T11:46:27.294Z,9.18
2023-04-16T11:48:56.359Z,14.45
2023-04-16T11:51:24.191Z,12.70
2023-04-16T11:53:56.395Z,11.30
2023-04-16T11:56:29.770Z,14.40
2023-04-16T11:59:23.999Z,10.73
2023-04-16T12:02:00.624Z,9.05
2023-04-16T12:04:33.772Z,13.23
2023-04-16T12:07:23.125Z,10.38
2023-04-16T12:10:12.127Z,12.10
2023-04-16T12:12:42.840Z,11.60
2023-04-16T12:15:15.048Z,16.38
2023-04-16T12:17:46.262Z,16.10
2023-04-16T12:20:17.698Z,11.30
2023-04-16T12:22:52.844Z,11.50
2023-04-16T12:25:22.644Z,11.48
2023-04-16T12:28:13.468Z,13.48
2023-04-16T12:30:53.233Z,9.55
2023-04-16T12:33:23.993Z,15.13
2023-04-16T12:35:56.654Z,14.43
2023-04-16T12:38:29.880Z,16.40
2023-04-16T12:40:58.535Z,12.90
2023-04-16T12:43:47.756Z,12.60
2023-04-16T12:46:21.838Z,13.60
2023-04-16T12:48:51.771Z,17.27
2023-04-16T12:51:27.168Z,11.98
2023-04-16T12:54:04.597Z,14.60
2023-04-16T12:56:39.316Z,14.05
2023-04-16T12:59:18.404Z,17.58
2023-04-16T13:01:53.566Z,17.63
2023-04-16T13:04:25.661Z,14.27
2023-04-16T13:07:25.401Z,12.40
2023-04-16T13:09:56.923Z,11.55
2023-04-16T13:12:29.026Z,16.80
2023-04-16T13:15:02.683Z,16.35
2023-04-16T13:17:36.534Z,17.50
2023-04-16T13:20:04.443Z,13.63
2023-04-16T13:22:35.875Z,12.07
2023-04-16T13:25:08.701Z,16.63
2023-04-16T13:27:38.014Z,12.15
2023-04-16T13:30:09.067Z,12.07
2023-04-16T13:32:37.075Z,15.90
2023-04-16T13:35:06.324Z,13.55
2023-04-16T13:37:36.877Z,18.08
2023-04-16T13:40:07.917Z,17.85
2023-04-16T13:42:36.148Z,12.52
2023-04-16T13:45:07.778Z,12.63
2023-04-16T13:47:47.022Z,15.40
2023-04-16T13:50:15.677Z,12.88
2023-04-16T13:52:45.448Z,14.70
2023-04-16T13:55:31.617Z,14.23
2023-04-16T13:58:08.801Z,13.63
2023-04-16T14:00:40.789Z,15.82
2023-04-16T14:03:17.631Z,15.05
2023-04-16T14:05:52.983Z,17.55
2023-04-16T14:08:21.497Z,14.55
2023-04-16T14:10:55.619Z,15.20
2023-04-16T14:13:31.577Z,15.75
2023-04-16T14:16:04.490Z,15.52
2023-04-16T14:18:37.936Z,14.27
2023-04-16T14:21:11.037Z,14.57
2023-04-16T14:23:38.522Z,13.80
2023-04-16T14:26:09.272Z,14.68
2023-04-16T14:29:03.546Z,18.27
2023-04-16T14:31:29.247Z,18.20
2023-04-16T14:33:57.279Z,14.70
2023-04-16T14:36:24.897Z,13.10
2023-04-16T14:38:58.069Z,16.58
2023-04-16T14:41:26.038Z,16.80
2023-04-16T14:43:55.152Z,15.02
2023-04-16T14:46:29.276Z,13.57
2023-04-16T14:49:02.765Z,18.77
2023-04-16T14:51:38.203Z,15.60
2023-04-16T14:54:08.562Z,11.90
2023-04-16T14:56:35.949Z,14.25
2023-04-16T14:59:06.900Z,13.02
2023-04-16T15:01:44.351Z,13.23
2023-04-16T15:04:17.598Z,16.92
2023-04-16T15:06:55.621Z,13.68
2023-04-16T15:09:24.715Z,16.15
2023-04-16T15:11:57.060Z,15.13
2023-04-16T15:14:29.029Z,17.20
2023-04-16T15:16:56.711Z,13.15
2023-04-16T15:19:29.544Z,19.65
2023-04-16T15:22:00.470Z,14.00
2023-04-16T15:24:30.941Z,15.05
2023-04-16T15:27:09.602Z,21.45
2023-04-16T15:29:39.812Z,15.00
2023-04-16T15:32:16.367Z,16.60
2023-04-16T15:34:44.822Z,22.50
2023-04-16T15:37:18.841Z,24.95
2023-04-16T15:39:46.568Z,22.40
2023-04-16T15:42:20.301Z,18.77
2023-04-16T15:44:55.410Z,16.35
2023-04-16T15:47:45.471Z,17.35
2023-04-16T15:50:14.484Z,21.33
2023-04-16T15:52:48.603Z,14.15
2023-04-16T15:55:20.903Z,15.02
2023-04-16T16:00:21.504Z,15.77
2023-04-16T16:02:49.053Z,16.13
2023-04-16T16:08:56.574Z,15.60
2023-04-16T16:11:28.001Z,16.85
2023-04-16T16:13:56.152Z,14.10
2023-04-16T16:16:30.180Z,15.73
2023-04-16T16:19:27.381Z,22.13
2023-04-16T16:22:11.435Z,31.15
2023-04-16T16:24:37.052Z,15.50
2023-04-16T16:27:05.104Z,17.08
2023-04-16T16:29:40.637Z,12.00
2023-04-16T16:32:45.580Z,44.15
2023-04-16T16:35:20.779Z,27.10
2023-04-16T16:38:02.949Z,14.55
2023-04-16T16:40:38.553Z,96.32
2023-04-16T16:43:07.791Z,92.35
2023-04-16T16:45:38.566Z,40.45
2023-04-16T16:48:11.211Z,47.63
2023-04-16T16:50:42.723Z,15.20
2023-04-16T16:53:12.666Z,15.40
2023-04-16T16:55:49.904Z,14.35
2023-04-16T16:58:40.354Z,17.00
2023-04-16T17:01:22.725Z,20.73
2023-04-16T17:03:53.955Z,22.73
2023-04-16T17:06:30.954Z,15.23
2023-04-16T17:09:14.138Z,16.85
2023-04-16T17:11:49.523Z,16.42
2023-04-16T17:14:17.273Z,16.65
2023-04-16T17:16:47.405Z,17.85
2023-04-16T17:19:17.940Z,13.20
2023-04-16T17:21:47.994Z,15.32
2023-04-16T17:27:41.059Z,15.82
2023-04-16T17:30:43.210Z,20.33
2023-04-16T17:33:30.863Z,22.77
2023-04-16T17:36:04.183Z,18.73
2023-04-16T17:38:32.407Z,21.58
2023-04-16T17:41:08.575Z,18.05
2023-04-16T17:44:24.691Z,16.73
2023-04-16T17:47:29.764Z,18.48
2023-04-16T17:49:57.687Z,16.98
2023-04-16T17:52:42.753Z,23.58
2023-04-16T17:55:13.461Z,16.58
2023-04-16T17:57:51.987Z,22.67
2023-04-16T18:00:32.073Z,18.73
2023-04-16T18:03:01.689Z,17.63
2023-04-16T18:05:35.253Z,20.13
2023-04-16T18:08:06.914Z,22.92
2023-04-16T18:10:48.926Z,17.30
2023-04-16T18:13:21.791Z,18.52
2023-04-16T18:15:49.662Z,15.48
2023-04-16T18:18:19.868Z,19.70
2023-04-16T18:20:47.142Z,15.85
2023-04-16T18:23:15.446Z,16.73
2023-04-16T18:25:42.867Z,17.25
2023-04-16T18:28:14.248Z,16.25
2023-04-16T18:30:42.716Z,22.35
2023-04-16T18:33:38.923Z,18.02
2023-04-16T18:36:09.851Z,14.65
2023-04-16T18:38:46.400Z,14.85
2023-04-16T18:41:21.678Z,17.27
2023-04-16T18:43:51.361Z,17.58
2023-04-16T18:46:22.159Z,14.20
2023-04-16T18:48:52.737Z,16.80
2023-04-16T18:51:20.192Z,16.10
2023-04-16T18:53:56.903Z,14.82
2023-04-16T18:56:25.033Z,15.68
2023-04-16T18:58:58.918Z,18.98
2023-04-16T19:01:27.708Z,17.83
2023-04-16T19:03:57.276Z,14.75
2023-04-16T19:06:27.000Z,18.25
2023-04-16T19:08:55.384Z,16.17
2023-04-16T19:11:22.617Z,16.73
2023-04-16T19:13:56.787Z,18.38
2023-04-16T19:16:32.193Z,13.98
2023-04-16T19:19:08.979Z,15.23
2023-04-16T19:21:42.848Z,17.45
2023-04-16T19:24:14.894Z,19.30
2023-04-16T19:26:44.335Z,20.45
2023-04-16T19:29:15.212Z,18.25
2023-04-16T19:31:43.497Z,16.23
2023-04-16T19:34:23.225Z,19.25
2023-04-16T19:36:59.421Z,14.77
2023-04-16T19:39:38.436Z,17.35
2023-04-16T19:42:08.510Z,20.17
2023-04-16T19:44:37.380Z,18.58
2023-04-16T19:47:16.653Z,16.35
2023-04-16T19:49:44.243Z,17.20
2023-04-16T19:52:28.144Z,18.17
2023-04-16T19:55:03.734Z,16.20
2023-04-16T19:57:36.104Z,17.35
2023-04-16T20:00:11.670Z,13.07
2023-04-16T20:02:48.017Z,15.02
2023-04-16T20:05:46.468Z,14.35
2023-04-16T20:08:06.134Z,17.38
2023-04-16T20:10:36.474Z,12.70
2023-04-16T20:13:04.024Z,14.93
2023-04-16T20:15:38.161Z,16.85
2023-04-16T20:18:09.483Z,13.95
2023-04-16T20:20:43.515Z,17.45
2023-04-16T20:23:13.170Z,16.92
2023-04-16T20:25:46.501Z,19.50
2023-04-16T20:28:17.624Z,13.55
2023-04-16T20:30:55.004Z,14.60
2023-04-16T20:33:25.645Z,11.18
2023-04-16T20:35:54.222Z,17.10
2023-04-16T20:38:27.002Z,20.15
2023-04-16T20:41:10.735Z,19.13
2023-04-16T20:43:40.864Z,14.82
2023-04-16T20:46:13.319Z,20.20
2023-04-16T20:48:51.944Z,23.63
2023-04-16T20:51:32.101Z,17.40
2023-04-16T20:56:32.427Z,15.50
2023-04-16T20:59:04.460Z,13.50
2023-04-16T21:01:37.750Z,12.00
2023-04-16T21:04:05.384Z,11.35
2023-04-16T21:06:38.539Z,13.10
2023-04-16T21:09:06.882Z,15.05
2023-04-16T21:11:37.949Z,15.15
2023-04-16T21:14:07.239Z,11.18
2023-04-16T21:16:40.430Z,13.30
2023-04-16T21:19:22.318Z,17.23
2023-04-16T21:21:56.128Z,15.23
2023-04-16T21:24:27.204Z,11.88
2023-04-16T21:26:55.884Z,14.13
2023-04-16T21:29:25.614Z,15.13
2023-04-16T21:31:57.608Z,15.05
2023-04-16T21:34:27.046Z,12.80
2023-04-16T21:36:57.818Z,12.70
2023-04-16T21:39:32.935Z,13.55
2023-04-16T21:42:03.866Z,17.30
2023-04-16T21:44:49.096Z,15.63
2023-04-16T21:47:17.217Z,14.27
2023-04-16T21:49:48.133Z,11.27
2023-04-16T21:52:18.629Z,10.07
2023-04-16T21:54:51.598Z,12.95
2023-04-16T22:00:21.461Z,10.07
2023-04-16T22:02:53.479Z,15.00
2023-04-16T22:07:59.223Z,13.48
2023-04-16T22:10:31.067Z,16.63
2023-04-16T22:13:12.654Z,13.23
2023-04-16T22:15:43.304Z,11.95
2023-04-16T22:18:11.561Z,12.00
2023-04-16T22:20:40.156Z,16.98
2023-04-16T22:23:20.198Z,16.77
2023-04-16T22:25:50.672Z,13.48
2023-04-16T22:28:29.373Z,11.82
2023-04-16T22:30:57.923Z,11.52
2023-04-16T22:33:25.157Z,10.60
2023-04-16T22:35:53.264Z,12.77
2023-04-16T22:38:24.558Z,13.55
2023-04-16T22:40:57.800Z,13.80
2023-04-16T22:43:28.007Z,10.30
2023-04-16T22:46:10.053Z,14.10
2023-04-16T22:51:24.736Z,11.65
2023-04-16T22:53:54.476Z,13.23
2023-04-16T22:56:24.034Z,12.82
2023-04-16T22:58:51.633Z,12.35
2023-04-16T23:01:23.353Z,12.40
2023-04-16T23:04:00.359Z,11.55
2023-04-16T23:06:35.040Z,14.82
2023-04-16T23:09:14.797Z,16.30
2023-04-16T23:11:51.445Z,14.15
2023-04-16T23:14:19.596Z,11.73
2023-04-16T23:16:48.579Z,11.50
2023-04-16T23:19:21.492Z,15.77
2023-04-16T23:21:58.784Z,12.98
2023-04-16T23:24:29.537Z,10.55
2023-04-16T23:27:00.658Z,11.75
2023-04-16T23:29:41.314Z,12.85
2023-04-16T23:32:12.314Z,10.82
2023-04-16T23:34:40.067Z,13.30
2023-04-16T23:37:12.246Z,11.63
2023-04-16T23:39:44.085Z,12.95
2023-04-16T23:42:13.070Z,11.88
2023-04-16T23:44:41.451Z,10.98
2023-04-16T23:47:09.067Z,15.38
2023-04-16T23:49:37.488Z,16.42
2023-04-16T23:52:08.239Z,11.23
2023-04-16T23:54:35.996Z,14.50
2023-04-16T23:57:06.741Z,11.90
2023-04-16T23:59:49.629Z,12.98
